sensor_id;sensor_type;location;lat;lon;timestamp;P1;durP1;ratioP1;P2;durP2;ratioP2
41897;SDS011;27576;53.366;-1.498;2024-01-06T00:01:24;8.05;;;6.40;;
41897;SDS011;27576;53.366;-1.498;2024-01-06T00:03:49;8.20;;;6.72;;
41897;SDS011;27576;53.366;-1.498;2024-01-06T00:06:15;7.57;;;6.65;;
41897;SDS011;27576;53.366;-1.498;2024-01-06T00:08:40;9.40;;;7.18;;
41897;SDS011;27576;53.366;-1.498;2024-01-06T00:11:05;7.68;;;6.07;;
41897;SDS011;27576;53.366;-1.498;2024-01-06T00:13:31;9.85;;;6.75;;
41897;SDS011;27576;53.366;-1.498;2024-01-06T00:15:56;7.60;;;6.25;;
41897;SDS011;27576;53.366;-1.498;2024-01-06T00:18:22;8.63;;;6.60;;
41897;SDS011;27576;53.366;-1.498;2024-01-06T00:20:47;7.75;;;6.63;;
41897;SDS011;27576;53.366;-1.498;2024-01-06T00:23:13;7.88;;;7.07;;
41897;SDS011;27576;53.366;-1.498;2024-01-06T00:25:38;9.48;;;7.28;;
41897;SDS011;27576;53.366;-1.498;2024-01-06T00:28:04;10.50;;;7.82;;
41897;SDS011;27576;53.366;-1.498;2024-01-06T00:30:29;8.52;;;7.28;;
41897;SDS011;27576;53.366;-1.498;2024-01-06T00:32:55;8.20;;;7.18;;
41897;SDS011;27576;53.366;-1.498;2024-01-06T00:35:20;8.18;;;7.20;;
41897;SDS011;27576;53.366;-1.498;2024-01-06T00:37:45;7.38;;;6.68;;
41897;SDS011;27576;53.366;-1.498;2024-01-06T00:40:11;7.32;;;6.63;;
41897;SDS011;27576;53.366;-1.498;2024-01-06T00:42:37;7.35;;;6.65;;
41897;SDS011;27576;53.366;-1.498;2024-01-06T00:45:02;9.10;;;6.82;;
41897;SDS011;27576;53.366;-1.498;2024-01-06T00:47:29;7.35;;;6.53;;
41897;SDS011;27576;53.366;-1.498;2024-01-06T00:49:54;6.82;;;6.13;;
41897;SDS011;27576;53.366;-1.498;2024-01-06T00:52:20;7.95;;;6.15;;
41897;SDS011;27576;53.366;-1.498;2024-01-06T00:54:45;6.43;;;5.78;;
41897;SDS011;27576;53.366;-1.498;2024-01-06T00:57:12;7.95;;;6.20;;
41897;SDS011;27576;53.366;-1.498;2024-01-06T00:59:37;7.85;;;5.80;;
41897;SDS011;27576;53.366;-1.498;2024-01-06T01:02:03;7.45;;;5.20;;
41897;SDS011;27576;53.366;-1.498;2024-01-06T01:04:28;5.57;;;4.90;;
41897;SDS011;27576;53.366;-1.498;2024-01-06T01:06:54;6.43;;;5.03;;
41897;SDS011;27576;53.366;-1.498;2024-01-06T01:09:19;6.18;;;5.18;;
41897;SDS011;27576;53.366;-1.498;2024-01-06T01:11:44;8.75;;;4.45;;
41897;SDS011;27576;53.366;-1.498;2024-01-06T01:14:10;4.82;;;4.13;;
41897;SDS011;27576;53.366;-1.498;2024-01-06T01:16:35;5.65;;;4.68;;
41897;SDS011;27576;53.366;-1.498;2024-01-06T01:19:00;7.13;;;4.63;;
41897;SDS011;27576;53.366;-1.498;2024-01-06T01:21:27;5.43;;;4.82;;
41897;SDS011;27576;53.366;-1.498;2024-01-06T01:23:53;5.72;;;4.57;;
41897;SDS011;27576;53.366;-1.498;2024-01-06T01:26:18;5.45;;;4.85;;
41897;SDS011;27576;53.366;-1.498;2024-01-06T01:28:43;5.57;;;5.07;;
41897;SDS011;27576;53.366;-1.498;2024-01-06T01:31:09;4.40;;;4.00;;
41897;SDS011;27576;53.366;-1.498;2024-01-06T01:33:34;6.43;;;4.88;;
41897;SDS011;27576;53.366;-1.498;2024-01-06T01:36:00;4.97;;;4.50;;
41897;SDS011;27576;53.366;-1.498;2024-01-06T01:38:25;5.88;;;5.18;;
41897;SDS011;27576;53.366;-1.498;2024-01-06T01:40:50;5.70;;;4.55;;
41897;SDS011;27576;53.366;-1.498;2024-01-06T01:43:17;4.80;;;4.18;;
41897;SDS011;27576;53.366;-1.498;2024-01-06T01:45:45;6.10;;;4.53;;
41897;SDS011;27576;53.366;-1.498;2024-01-06T01:48:14;6.57;;;5.15;;
41897;SDS011;27576;53.366;-1.498;2024-01-06T01:50:39;6.35;;;4.80;;
41897;SDS011;27576;53.366;-1.498;2024-01-06T01:53:05;5.28;;;4.65;;
41897;SDS011;27576;53.366;-1.498;2024-01-06T01:55:31;6.15;;;4.82;;
41897;SDS011;27576;53.366;-1.498;2024-01-06T01:57:56;5.90;;;5.03;;
41897;SDS011;27576;53.366;-1.498;2024-01-06T02:00:22;5.05;;;4.40;;
41897;SDS011;27576;53.366;-1.498;2024-01-06T02:02:47;5.00;;;4.22;;
41897;SDS011;27576;53.366;-1.498;2024-01-06T02:05:13;6.25;;;4.70;;
41897;SDS011;27576;53.366;-1.498;2024-01-06T02:07:39;4.90;;;4.40;;
41897;SDS011;27576;53.366;-1.498;2024-01-06T02:10:05;4.60;;;4.20;;
41897;SDS011;27576;53.366;-1.498;2024-01-06T02:12:31;5.50;;;4.10;;
41897;SDS011;27576;53.366;-1.498;2024-01-06T02:14:57;4.88;;;4.15;;
41897;SDS011;27576;53.366;-1.498;2024-01-06T02:17:22;5.72;;;3.88;;
41897;SDS011;27576;53.366;-1.498;2024-01-06T02:19:48;4.28;;;3.85;;
41897;SDS011;27576;53.366;-1.498;2024-01-06T02:22:13;5.40;;;4.60;;
41897;SDS011;27576;53.366;-1.498;2024-01-06T02:24:38;4.93;;;3.80;;
41897;SDS011;27576;53.366;-1.498;2024-01-06T02:27:04;6.47;;;4.40;;
41897;SDS011;27576;53.366;-1.498;2024-01-06T02:29:29;4.40;;;3.80;;
41897;SDS011;27576;53.366;-1.498;2024-01-06T02:31:55;5.78;;;4.00;;
41897;SDS011;27576;53.366;-1.498;2024-01-06T02:34:20;5.53;;;3.85;;
41897;SDS011;27576;53.366;-1.498;2024-01-06T02:36:45;3.70;;;3.40;;
41897;SDS011;27576;53.366;-1.498;2024-01-06T02:39:11;4.13;;;3.45;;
41897;SDS011;27576;53.366;-1.498;2024-01-06T02:41:36;5.85;;;4.00;;
41897;SDS011;27576;53.366;-1.498;2024-01-06T02:44:02;6.15;;;5.05;;
41897;SDS011;27576;53.366;-1.498;2024-01-06T02:46:29;6.47;;;4.95;;
41897;SDS011;27576;53.366;-1.498;2024-01-06T02:48:54;6.28;;;4.85;;
41897;SDS011;27576;53.366;-1.498;2024-01-06T02:51:20;5.28;;;4.45;;
41897;SDS011;27576;53.366;-1.498;2024-01-06T02:53:45;4.35;;;3.70;;
41897;SDS011;27576;53.366;-1.498;2024-01-06T02:56:11;4.72;;;3.65;;
41897;SDS011;27576;53.366;-1.498;2024-01-06T02:58:37;5.57;;;4.43;;
41897;SDS011;27576;53.366;-1.498;2024-01-06T03:01:03;4.60;;;4.18;;
41897;SDS011;27576;53.366;-1.498;2024-01-06T03:03:28;4.00;;;3.60;;
41897;SDS011;27576;53.366;-1.498;2024-01-06T03:05:53;4.93;;;3.83;;
41897;SDS011;27576;53.366;-1.498;2024-01-06T03:08:19;4.55;;;3.22;;
41897;SDS011;27576;53.366;-1.498;2024-01-06T03:10:44;4.53;;;3.20;;
41897;SDS011;27576;53.366;-1.498;2024-01-06T03:13:10;3.67;;;3.08;;
41897;SDS011;27576;53.366;-1.498;2024-01-06T03:15:35;5.47;;;3.72;;
41897;SDS011;27576;53.366;-1.498;2024-01-06T03:18:00;5.40;;;3.70;;
41897;SDS011;27576;53.366;-1.498;2024-01-06T03:20:26;4.22;;;3.40;;
41897;SDS011;27576;53.366;-1.498;2024-01-06T03:22:52;5.05;;;3.40;;
41897;SDS011;27576;53.366;-1.498;2024-01-06T03:25:18;4.20;;;2.80;;
41897;SDS011;27576;53.366;-1.498;2024-01-06T03:27:43;3.80;;;3.10;;
41897;SDS011;27576;53.366;-1.498;2024-01-06T03:30:09;3.83;;;3.35;;
41897;SDS011;27576;53.366;-1.498;2024-01-06T03:32:35;4.20;;;3.13;;
41897;SDS011;27576;53.366;-1.498;2024-01-06T03:35:00;5.03;;;3.28;;
41897;SDS011;27576;53.366;-1.498;2024-01-06T03:37:25;3.78;;;3.00;;
41897;SDS011;27576;53.366;-1.498;2024-01-06T03:39:51;4.05;;;3.13;;
41897;SDS011;27576;53.366;-1.498;2024-01-06T03:42:16;5.00;;;3.20;;
41897;SDS011;27576;53.366;-1.498;2024-01-06T03:44:42;4.07;;;2.95;;
41897;SDS011;27576;53.366;-1.498;2024-01-06T03:47:07;4.75;;;3.38;;
41897;SDS011;27576;53.366;-1.498;2024-01-06T03:49:32;5.00;;;3.03;;
41897;SDS011;27576;53.366;-1.498;2024-01-06T03:51:58;4.55;;;3.00;;
41897;SDS011;27576;53.366;-1.498;2024-01-06T03:54:23;5.32;;;3.25;;
41897;SDS011;27576;53.366;-1.498;2024-01-06T03:56:49;3.20;;;2.90;;
41897;SDS011;27576;53.366;-1.498;2024-01-06T03:59:15;4.60;;;2.72;;
41897;SDS011;27576;53.366;-1.498;2024-01-06T04:01:40;5.97;;;2.88;;
41897;SDS011;27576;53.366;-1.498;2024-01-06T04:04:06;3.80;;;2.38;;
41897;SDS011;27576;53.366;-1.498;2024-01-06T04:06:32;4.93;;;2.25;;
41897;SDS011;27576;53.366;-1.498;2024-01-06T04:08:57;4.03;;;2.28;;
41897;SDS011;27576;53.366;-1.498;2024-01-06T04:11:23;3.97;;;2.45;;
41897;SDS011;27576;53.366;-1.498;2024-01-06T04:13:48;3.60;;;2.58;;
41897;SDS011;27576;53.366;-1.498;2024-01-06T04:16:14;4.35;;;2.72;;
41897;SDS011;27576;53.366;-1.498;2024-01-06T04:18:39;4.55;;;2.78;;
41897;SDS011;27576;53.366;-1.498;2024-01-06T04:21:05;3.47;;;2.45;;
41897;SDS011;27576;53.366;-1.498;2024-01-06T04:23:30;5.35;;;2.30;;
41897;SDS011;27576;53.366;-1.498;2024-01-06T04:25:56;4.57;;;2.40;;
41897;SDS011;27576;53.366;-1.498;2024-01-06T04:28:22;4.88;;;2.67;;
41897;SDS011;27576;53.366;-1.498;2024-01-06T04:30:47;3.47;;;2.40;;
41897;SDS011;27576;53.366;-1.498;2024-01-06T04:33:14;5.07;;;2.60;;
41897;SDS011;27576;53.366;-1.498;2024-01-06T04:35:39;3.50;;;2.03;;
41897;SDS011;27576;53.366;-1.498;2024-01-06T04:38:05;4.07;;;1.95;;
41897;SDS011;27576;53.366;-1.498;2024-01-06T04:40:30;5.05;;;2.60;;
41897;SDS011;27576;53.366;-1.498;2024-01-06T04:42:55;3.33;;;2.22;;
41897;SDS011;27576;53.366;-1.498;2024-01-06T04:45:21;4.70;;;2.40;;
41897;SDS011;27576;53.366;-1.498;2024-01-06T04:47:49;5.25;;;2.80;;
41897;SDS011;27576;53.366;-1.498;2024-01-06T04:50:14;2.75;;;2.45;;
41897;SDS011;27576;53.366;-1.498;2024-01-06T04:52:40;5.30;;;2.63;;
41897;SDS011;27576;53.366;-1.498;2024-01-06T04:55:05;7.35;;;2.70;;
41897;SDS011;27576;53.366;-1.498;2024-01-06T04:57:31;4.60;;;2.50;;
41897;SDS011;27576;53.366;-1.498;2024-01-06T04:59:56;3.70;;;2.70;;
41897;SDS011;27576;53.366;-1.498;2024-01-06T05:02:21;4.20;;;2.55;;
41897;SDS011;27576;53.366;-1.498;2024-01-06T05:04:47;3.95;;;2.92;;
41897;SDS011;27576;53.366;-1.498;2024-01-06T05:07:12;4.57;;;2.60;;
41897;SDS011;27576;53.366;-1.498;2024-01-06T05:09:38;4.47;;;2.60;;
41897;SDS011;27576;53.366;-1.498;2024-01-06T05:12:03;4.72;;;2.38;;
41897;SDS011;27576;53.366;-1.498;2024-01-06T05:14:29;4.60;;;2.40;;
41897;SDS011;27576;53.366;-1.498;2024-01-06T05:16:54;5.95;;;2.92;;
41897;SDS011;27576;53.366;-1.498;2024-01-06T05:19:20;4.38;;;2.63;;
41897;SDS011;27576;53.366;-1.498;2024-01-06T05:21:46;5.50;;;2.80;;
41897;SDS011;27576;53.366;-1.498;2024-01-06T05:24:12;6.22;;;2.80;;
41897;SDS011;27576;53.366;-1.498;2024-01-06T05:26:38;3.75;;;2.97;;
41897;SDS011;27576;53.366;-1.498;2024-01-06T05:29:03;5.68;;;3.25;;
41897;SDS011;27576;53.366;-1.498;2024-01-06T05:31:29;8.20;;;3.25;;
41897;SDS011;27576;53.366;-1.498;2024-01-06T05:33:54;6.70;;;3.53;;
41897;SDS011;27576;53.366;-1.498;2024-01-06T05:36:19;7.22;;;3.38;;
41897;SDS011;27576;53.366;-1.498;2024-01-06T05:38:45;6.85;;;3.63;;
41897;SDS011;27576;53.366;-1.498;2024-01-06T05:41:10;5.53;;;2.97;;
41897;SDS011;27576;53.366;-1.498;2024-01-06T05:43:36;5.85;;;3.60;;
41897;SDS011;27576;53.366;-1.498;2024-01-06T05:46:01;9.85;;;3.35;;
41897;SDS011;27576;53.366;-1.498;2024-01-06T05:48:27;8.65;;;3.50;;
41897;SDS011;27576;53.366;-1.498;2024-01-06T05:50:52;5.35;;;2.80;;
41897;SDS011;27576;53.366;-1.498;2024-01-06T05:53:18;6.95;;;3.35;;
41897;SDS011;27576;53.366;-1.498;2024-01-06T05:55:44;4.28;;;3.47;;
41897;SDS011;27576;53.366;-1.498;2024-01-06T05:58:09;5.13;;;2.70;;
41897;SDS011;27576;53.366;-1.498;2024-01-06T06:00:34;8.10;;;3.38;;
41897;SDS011;27576;53.366;-1.498;2024-01-06T06:03:00;7.97;;;3.50;;
41897;SDS011;27576;53.366;-1.498;2024-01-06T06:05:25;6.82;;;3.17;;
41897;SDS011;27576;53.366;-1.498;2024-01-06T06:07:51;8.18;;;4.00;;
41897;SDS011;27576;53.366;-1.498;2024-01-06T06:10:17;4.65;;;3.38;;
41897;SDS011;27576;53.366;-1.498;2024-01-06T06:12:43;5.55;;;3.47;;
41897;SDS011;27576;53.366;-1.498;2024-01-06T06:15:09;6.72;;;3.58;;
41897;SDS011;27576;53.366;-1.498;2024-01-06T06:17:35;5.60;;;3.78;;
41897;SDS011;27576;53.366;-1.498;2024-01-06T06:20:01;5.97;;;3.28;;
41897;SDS011;27576;53.366;-1.498;2024-01-06T06:22:27;4.05;;;3.03;;
41897;SDS011;27576;53.366;-1.498;2024-01-06T06:24:55;5.05;;;3.25;;
41897;SDS011;27576;53.366;-1.498;2024-01-06T06:27:22;9.50;;;3.25;;
41897;SDS011;27576;53.366;-1.498;2024-01-06T06:29:47;8.50;;;4.47;;
41897;SDS011;27576;53.366;-1.498;2024-01-06T06:32:13;5.57;;;3.38;;
41897;SDS011;27576;53.366;-1.498;2024-01-06T06:34:38;6.72;;;3.78;;
41897;SDS011;27576;53.366;-1.498;2024-01-06T06:37:03;6.35;;;3.67;;
41897;SDS011;27576;53.366;-1.498;2024-01-06T06:39:29;7.97;;;4.10;;
41897;SDS011;27576;53.366;-1.498;2024-01-06T06:41:56;17.45;;;4.85;;
41897;SDS011;27576;53.366;-1.498;2024-01-06T06:44:21;12.93;;;4.18;;
41897;SDS011;27576;53.366;-1.498;2024-01-06T06:46:47;12.43;;;5.13;;
41897;SDS011;27576;53.366;-1.498;2024-01-06T06:49:12;10.65;;;4.43;;
41897;SDS011;27576;53.366;-1.498;2024-01-06T06:51:37;11.43;;;4.28;;
41897;SDS011;27576;53.366;-1.498;2024-01-06T06:54:11;6.63;;;4.28;;
41897;SDS011;27576;53.366;-1.498;2024-01-06T06:56:36;9.63;;;4.32;;
41897;SDS011;27576;53.366;-1.498;2024-01-06T06:59:01;7.35;;;4.75;;
41897;SDS011;27576;53.366;-1.498;2024-01-06T07:01:27;8.43;;;4.20;;
41897;SDS011;27576;53.366;-1.498;2024-01-06T07:03:52;7.90;;;4.18;;
41897;SDS011;27576;53.366;-1.498;2024-01-06T07:06:18;9.82;;;4.97;;
41897;SDS011;27576;53.366;-1.498;2024-01-06T07:08:44;6.72;;;4.30;;
41897;SDS011;27576;53.366;-1.498;2024-01-06T07:11:09;5.97;;;2.55;;
41897;SDS011;27576;53.366;-1.498;2024-01-06T07:13:36;7.10;;;2.95;;
41897;SDS011;27576;53.366;-1.498;2024-01-06T07:16:02;7.65;;;2.83;;
41897;SDS011;27576;53.366;-1.498;2024-01-06T07:18:27;7.35;;;2.30;;
41897;SDS011;27576;53.366;-1.498;2024-01-06T07:20:53;7.38;;;2.75;;
41897;SDS011;27576;53.366;-1.498;2024-01-06T07:23:18;8.80;;;2.60;;
41897;SDS011;27576;53.366;-1.498;2024-01-06T07:25:44;6.38;;;2.08;;
41897;SDS011;27576;53.366;-1.498;2024-01-06T07:28:09;9.20;;;2.42;;
41897;SDS011;27576;53.366;-1.498;2024-01-06T07:30:35;3.35;;;2.10;;
41897;SDS011;27576;53.366;-1.498;2024-01-06T07:33:00;7.55;;;2.40;;
41897;SDS011;27576;53.366;-1.498;2024-01-06T07:35:25;7.03;;;2.28;;
41897;SDS011;27576;53.366;-1.498;2024-01-06T07:37:51;8.20;;;2.30;;
41897;SDS011;27576;53.366;-1.498;2024-01-06T07:40:16;7.50;;;2.28;;
41897;SDS011;27576;53.366;-1.498;2024-01-06T07:42:42;4.88;;;2.15;;
41897;SDS011;27576;53.366;-1.498;2024-01-06T07:45:09;8.88;;;2.50;;
41897;SDS011;27576;53.366;-1.498;2024-01-06T07:47:34;7.15;;;2.13;;
41897;SDS011;27576;53.366;-1.498;2024-01-06T07:50:00;9.00;;;2.38;;
41897;SDS011;27576;53.366;-1.498;2024-01-06T07:52:25;8.93;;;1.95;;
41897;SDS011;27576;53.366;-1.498;2024-01-06T07:54:51;8.35;;;2.25;;
41897;SDS011;27576;53.366;-1.498;2024-01-06T07:57:16;7.13;;;2.40;;
41897;SDS011;27576;53.366;-1.498;2024-01-06T07:59:41;6.15;;;2.25;;
41897;SDS011;27576;53.366;-1.498;2024-01-06T08:02:07;8.82;;;2.45;;
41897;SDS011;27576;53.366;-1.498;2024-01-06T08:04:33;4.22;;;2.22;;
41897;SDS011;27576;53.366;-1.498;2024-01-06T08:06:59;5.45;;;2.10;;
41897;SDS011;27576;53.366;-1.498;2024-01-06T08:09:25;8.65;;;2.40;;
41897;SDS011;27576;53.366;-1.498;2024-01-06T08:11:50;7.28;;;2.15;;
41897;SDS011;27576;53.366;-1.498;2024-01-06T08:14:16;4.72;;;2.03;;
41897;SDS011;27576;53.366;-1.498;2024-01-06T08:16:42;7.78;;;2.10;;
41897;SDS011;27576;53.366;-1.498;2024-01-06T08:19:08;6.28;;;2.33;;
41897;SDS011;27576;53.366;-1.498;2024-01-06T08:21:34;6.10;;;2.17;;
41897;SDS011;27576;53.366;-1.498;2024-01-06T08:24:00;4.90;;;2.08;;
41897;SDS011;27576;53.366;-1.498;2024-01-06T08:26:25;7.88;;;2.58;;
41897;SDS011;27576;53.366;-1.498;2024-01-06T08:28:51;5.00;;;2.25;;
41897;SDS011;27576;53.366;-1.498;2024-01-06T08:31:17;5.05;;;2.10;;
41897;SDS011;27576;53.366;-1.498;2024-01-06T08:33:43;4.90;;;2.72;;
41897;SDS011;27576;53.366;-1.498;2024-01-06T08:36:08;5.63;;;2.47;;
41897;SDS011;27576;53.366;-1.498;2024-01-06T08:38:34;4.43;;;2.00;;
41897;SDS011;27576;53.366;-1.498;2024-01-06T08:41:00;5.93;;;2.50;;
41897;SDS011;27576;53.366;-1.498;2024-01-06T08:43:27;9.02;;;2.92;;
41897;SDS011;27576;53.366;-1.498;2024-01-06T08:45:52;8.02;;;2.33;;
41897;SDS011;27576;53.366;-1.498;2024-01-06T08:48:18;7.45;;;2.60;;
41897;SDS011;27576;53.366;-1.498;2024-01-06T08:50:43;7.10;;;2.17;;
41897;SDS011;27576;53.366;-1.498;2024-01-06T08:53:10;6.90;;;2.25;;
41897;SDS011;27576;53.366;-1.498;2024-01-06T08:55:36;10.60;;;2.60;;
41897;SDS011;27576;53.366;-1.498;2024-01-06T08:58:01;7.05;;;2.80;;
41897;SDS011;27576;53.366;-1.498;2024-01-06T09:00:27;4.43;;;2.42;;
41897;SDS011;27576;53.366;-1.498;2024-01-06T09:02:53;4.57;;;2.33;;
41897;SDS011;27576;53.366;-1.498;2024-01-06T09:05:18;9.25;;;2.78;;
41897;SDS011;27576;53.366;-1.498;2024-01-06T09:07:44;6.43;;;2.45;;
41897;SDS011;27576;53.366;-1.498;2024-01-06T09:10:14;6.38;;;2.45;;
41897;SDS011;27576;53.366;-1.498;2024-01-06T09:12:39;4.05;;;2.08;;
41897;SDS011;27576;53.366;-1.498;2024-01-06T09:15:05;6.63;;;1.85;;
41897;SDS011;27576;53.366;-1.498;2024-01-06T09:17:32;6.97;;;2.33;;
41897;SDS011;27576;53.366;-1.498;2024-01-06T09:19:57;6.70;;;2.38;;
41897;SDS011;27576;53.366;-1.498;2024-01-06T09:22:23;6.55;;;2.50;;
41897;SDS011;27576;53.366;-1.498;2024-01-06T09:24:49;7.55;;;2.60;;
41897;SDS011;27576;53.366;-1.498;2024-01-06T09:27:14;4.57;;;2.17;;
41897;SDS011;27576;53.366;-1.498;2024-01-06T09:29:40;4.57;;;2.22;;
41897;SDS011;27576;53.366;-1.498;2024-01-06T09:32:06;5.30;;;2.10;;
41897;SDS011;27576;53.366;-1.498;2024-01-06T09:34:32;6.88;;;2.30;;
41897;SDS011;27576;53.366;-1.498;2024-01-06T09:36:57;6.85;;;2.92;;
41897;SDS011;27576;53.366;-1.498;2024-01-06T09:39:23;4.65;;;2.05;;
41897;SDS011;27576;53.366;-1.498;2024-01-06T09:41:48;6.65;;;1.90;;
41897;SDS011;27576;53.366;-1.498;2024-01-06T09:44:13;7.90;;;2.70;;
41897;SDS011;27576;53.366;-1.498;2024-01-06T09:46:40;5.93;;;2.55;;
41897;SDS011;27576;53.366;-1.498;2024-01-06T09:49:08;5.53;;;2.03;;
41897;SDS011;27576;53.366;-1.498;2024-01-06T09:51:35;6.30;;;2.35;;
41897;SDS011;27576;53.366;-1.498;2024-01-06T09:54:03;7.13;;;2.22;;
41897;SDS011;27576;53.366;-1.498;2024-01-06T09:56:33;6.55;;;3.03;;
41897;SDS011;27576;53.366;-1.498;2024-01-06T09:58:59;9.20;;;4.10;;
41897;SDS011;27576;53.366;-1.498;2024-01-06T10:01:24;13.10;;;6.60;;
41897;SDS011;27576;53.366;-1.498;2024-01-06T10:03:50;12.68;;;5.80;;
41897;SDS011;27576;53.366;-1.498;2024-01-06T10:06:15;15.52;;;6.22;;
41897;SDS011;27576;53.366;-1.498;2024-01-06T10:08:51;15.32;;;7.22;;
41897;SDS011;27576;53.366;-1.498;2024-01-06T10:11:18;13.25;;;7.30;;
41897;SDS011;27576;53.366;-1.498;2024-01-06T10:13:47;18.52;;;7.75;;
41897;SDS011;27576;53.366;-1.498;2024-01-06T10:16:14;17.33;;;7.85;;
41897;SDS011;27576;53.366;-1.498;2024-01-06T10:18:39;14.60;;;5.93;;
41897;SDS011;27576;53.366;-1.498;2024-01-06T10:21:05;8.93;;;4.78;;
41897;SDS011;27576;53.366;-1.498;2024-01-06T10:23:31;11.10;;;4.65;;
41897;SDS011;27576;53.366;-1.498;2024-01-06T10:25:57;7.60;;;3.45;;
41897;SDS011;27576;53.366;-1.498;2024-01-06T10:28:23;6.80;;;2.58;;
41897;SDS011;27576;53.366;-1.498;2024-01-06T10:30:52;5.57;;;2.40;;
41897;SDS011;27576;53.366;-1.498;2024-01-06T10:33:23;6.72;;;2.55;;
41897;SDS011;27576;53.366;-1.498;2024-01-06T10:35:50;5.47;;;3.10;;
41897;SDS011;27576;53.366;-1.498;2024-01-06T10:38:15;7.78;;;2.47;;
41897;SDS011;27576;53.366;-1.498;2024-01-06T10:41:00;6.22;;;2.20;;
41897;SDS011;27576;53.366;-1.498;2024-01-06T10:43:32;5.75;;;1.92;;
41897;SDS011;27576;53.366;-1.498;2024-01-06T10:46:05;6.13;;;2.33;;
41897;SDS011;27576;53.366;-1.498;2024-01-06T10:48:35;7.68;;;2.30;;
41897;SDS011;27576;53.366;-1.498;2024-01-06T10:51:03;7.15;;;2.70;;
41897;SDS011;27576;53.366;-1.498;2024-01-06T10:53:32;8.88;;;2.97;;
41897;SDS011;27576;53.366;-1.498;2024-01-06T10:56:01;6.47;;;2.33;;
41897;SDS011;27576;53.366;-1.498;2024-01-06T10:58:26;8.90;;;2.30;;
41897;SDS011;27576;53.366;-1.498;2024-01-06T11:00:55;5.55;;;2.33;;
41897;SDS011;27576;53.366;-1.498;2024-01-06T11:03:21;6.25;;;2.63;;
41897;SDS011;27576;53.366;-1.498;2024-01-06T11:05:47;7.78;;;2.83;;
41897;SDS011;27576;53.366;-1.498;2024-01-06T11:08:13;9.27;;;3.30;;
41897;SDS011;27576;53.366;-1.498;2024-01-06T11:10:44;3.80;;;2.10;;
41897;SDS011;27576;53.366;-1.498;2024-01-06T11:13:11;9.63;;;3.30;;
41897;SDS011;27576;53.366;-1.498;2024-01-06T11:18:06;5.05;;;2.35;;
41897;SDS011;27576;53.366;-1.498;2024-01-06T11:20:31;6.32;;;2.38;;
41897;SDS011;27576;53.366;-1.498;2024-01-06T11:23:16;5.43;;;2.13;;
41897;SDS011;27576;53.366;-1.498;2024-01-06T11:25:45;7.22;;;2.80;;
41897;SDS011;27576;53.366;-1.498;2024-01-06T11:28:10;6.32;;;2.55;;
41897;SDS011;27576;53.366;-1.498;2024-01-06T11:30:37;7.78;;;2.67;;
41897;SDS011;27576;53.366;-1.498;2024-01-06T11:33:04;8.30;;;2.33;;
41897;SDS011;27576;53.366;-1.498;2024-01-06T11:35:30;10.50;;;2.50;;
41897;SDS011;27576;53.366;-1.498;2024-01-06T11:37:56;4.28;;;2.30;;
41897;SDS011;27576;53.366;-1.498;2024-01-06T11:40:30;8.57;;;2.58;;
41897;SDS011;27576;53.366;-1.498;2024-01-06T11:45:36;5.32;;;2.50;;
41897;SDS011;27576;53.366;-1.498;2024-01-06T11:48:03;11.15;;;2.67;;
41897;SDS011;27576;53.366;-1.498;2024-01-06T11:50:34;7.70;;;2.50;;
41897;SDS011;27576;53.366;-1.498;2024-01-06T11:53:02;6.05;;;2.72;;
41897;SDS011;27576;53.366;-1.498;2024-01-06T11:55:28;10.45;;;3.03;;
41897;SDS011;27576;53.366;-1.498;2024-01-06T11:57:56;5.22;;;2.58;;
41897;SDS011;27576;53.366;-1.498;2024-01-06T12:00:26;6.60;;;2.38;;
41897;SDS011;27576;53.366;-1.498;2024-01-06T12:02:55;7.70;;;2.95;;
41897;SDS011;27576;53.366;-1.498;2024-01-06T12:05:22;5.32;;;2.22;;
41897;SDS011;27576;53.366;-1.498;2024-01-06T12:07:53;3.95;;;2.60;;
41897;SDS011;27576;53.366;-1.498;2024-01-06T12:10:20;5.57;;;2.58;;
41897;SDS011;27576;53.366;-1.498;2024-01-06T12:13:02;5.40;;;2.72;;
41897;SDS011;27576;53.366;-1.498;2024-01-06T12:15:31;5.78;;;2.30;;
41897;SDS011;27576;53.366;-1.498;2024-01-06T12:18:02;3.75;;;2.20;;
41897;SDS011;27576;53.366;-1.498;2024-01-06T12:20:28;6.60;;;2.80;;
41897;SDS011;27576;53.366;-1.498;2024-01-06T12:22:56;4.38;;;2.55;;
41897;SDS011;27576;53.366;-1.498;2024-01-06T12:25:21;5.45;;;3.08;;
41897;SDS011;27576;53.366;-1.498;2024-01-06T12:27:48;8.68;;;2.80;;
41897;SDS011;27576;53.366;-1.498;2024-01-06T12:30:15;8.00;;;2.78;;
41897;SDS011;27576;53.366;-1.498;2024-01-06T12:32:44;9.55;;;2.92;;
41897;SDS011;27576;53.366;-1.498;2024-01-06T12:35:11;6.03;;;2.35;;
41897;SDS011;27576;53.366;-1.498;2024-01-06T12:37:37;8.07;;;3.05;;
41897;SDS011;27576;53.366;-1.498;2024-01-06T12:40:02;6.93;;;2.78;;
41897;SDS011;27576;53.366;-1.498;2024-01-06T12:42:28;9.85;;;2.78;;
41897;SDS011;27576;53.366;-1.498;2024-01-06T12:44:53;8.48;;;2.53;;
41897;SDS011;27576;53.366;-1.498;2024-01-06T12:47:19;4.13;;;2.55;;
41897;SDS011;27576;53.366;-1.498;2024-01-06T12:49:44;7.28;;;2.83;;
41897;SDS011;27576;53.366;-1.498;2024-01-06T12:52:11;5.32;;;2.47;;
41897;SDS011;27576;53.366;-1.498;2024-01-06T12:54:37;8.23;;;2.70;;
41897;SDS011;27576;53.366;-1.498;2024-01-06T12:57:03;6.97;;;2.67;;
41897;SDS011;27576;53.366;-1.498;2024-01-06T12:59:28;7.63;;;2.70;;
41897;SDS011;27576;53.366;-1.498;2024-01-06T13:01:55;5.38;;;2.35;;
41897;SDS011;27576;53.366;-1.498;2024-01-06T13:04:22;7.15;;;2.72;;
41897;SDS011;27576;53.366;-1.498;2024-01-06T13:06:47;8.88;;;2.85;;
41897;SDS011;27576;53.366;-1.498;2024-01-06T13:09:14;9.13;;;2.58;;
41897;SDS011;27576;53.366;-1.498;2024-01-06T13:11:41;6.50;;;2.33;;
41897;SDS011;27576;53.366;-1.498;2024-01-06T13:14:07;11.82;;;3.13;;
41897;SDS011;27576;53.366;-1.498;2024-01-06T13:16:33;9.23;;;2.33;;
41897;SDS011;27576;53.366;-1.498;2024-01-06T13:18:59;10.43;;;2.60;;
41897;SDS011;27576;53.366;-1.498;2024-01-06T13:21:25;5.35;;;2.35;;
41897;SDS011;27576;53.366;-1.498;2024-01-06T13:23:50;3.10;;;2.13;;
41897;SDS011;27576;53.366;-1.498;2024-01-06T13:26:16;6.75;;;2.65;;
41897;SDS011;27576;53.366;-1.498;2024-01-06T13:28:41;7.30;;;2.33;;
41897;SDS011;27576;53.366;-1.498;2024-01-06T13:31:07;6.82;;;2.35;;
41897;SDS011;27576;53.366;-1.498;2024-01-06T13:33:33;9.35;;;2.33;;
41897;SDS011;27576;53.366;-1.498;2024-01-06T13:35:58;5.20;;;2.33;;
41897;SDS011;27576;53.366;-1.498;2024-01-06T13:38:23;6.78;;;2.33;;
41897;SDS011;27576;53.366;-1.498;2024-01-06T13:40:51;8.00;;;3.10;;
41897;SDS011;27576;53.366;-1.498;2024-01-06T13:43:17;6.88;;;2.55;;
41897;SDS011;27576;53.366;-1.498;2024-01-06T13:45:43;10.38;;;2.78;;
41897;SDS011;27576;53.366;-1.498;2024-01-06T13:48:12;5.20;;;2.50;;
41897;SDS011;27576;53.366;-1.498;2024-01-06T13:50:38;6.43;;;2.33;;
41897;SDS011;27576;53.366;-1.498;2024-01-06T13:53:04;6.35;;;2.58;;
41897;SDS011;27576;53.366;-1.498;2024-01-06T13:55:31;6.82;;;3.53;;
41897;SDS011;27576;53.366;-1.498;2024-01-06T13:57:58;9.00;;;3.63;;
41897;SDS011;27576;53.366;-1.498;2024-01-06T14:00:23;9.23;;;3.55;;
41897;SDS011;27576;53.366;-1.498;2024-01-06T14:02:51;8.27;;;3.55;;
41897;SDS011;27576;53.366;-1.498;2024-01-06T14:05:19;9.50;;;3.53;;
41897;SDS011;27576;53.366;-1.498;2024-01-06T14:07:44;6.25;;;3.75;;
41897;SDS011;27576;53.366;-1.498;2024-01-06T14:10:11;5.93;;;3.45;;
41897;SDS011;27576;53.366;-1.498;2024-01-06T14:12:37;9.65;;;3.88;;
41897;SDS011;27576;53.366;-1.498;2024-01-06T14:15:03;9.38;;;3.40;;
41897;SDS011;27576;53.366;-1.498;2024-01-06T14:17:29;9.07;;;3.10;;
41897;SDS011;27576;53.366;-1.498;2024-01-06T14:19:55;9.48;;;4.22;;
41897;SDS011;27576;53.366;-1.498;2024-01-06T14:22:20;8.20;;;3.85;;
41897;SDS011;27576;53.366;-1.498;2024-01-06T14:24:45;8.60;;;3.28;;
41897;SDS011;27576;53.366;-1.498;2024-01-06T14:27:11;8.68;;;3.72;;
41897;SDS011;27576;53.366;-1.498;2024-01-06T14:29:36;8.65;;;3.95;;
41897;SDS011;27576;53.366;-1.498;2024-01-06T14:32:04;8.48;;;3.67;;